Kayu Ramin — 3FPC9 — position and weather

sailwx.info

Track history (hours):
 
Tides and Currents Weather Stations Pressure Air Temp Water Temp Dewpoint Dewpoint Depression Visibility Wind Speed Wind Dir Waves Ship Positions

Kayu Ramin

Last reported at 2015-Jan-27 02:33 UTC. Time now 2015-Jan-31 07:05 UTC.
Position N 38°18' E 121°31'.

Length 225 m; draft 12 m.

Type: Cargo ship. MMSI: 354989000.

Date/timePositionNaut miles runAvg speedWind from/ knotsBaromVisibWave heightAir tempDewpointWater temp
2015-Jan-27 02:33N 38°18' E 121°31'17210.7
2015-Jan-26 10:33N 38°57' E 117°57'9 7.3
2015-Jan-26 09:19N 38°58' E 117°46'0 0.0
2015-Jan-26 08:31N 38°58' E 117°46'0 0.0
2015-Jan-26 07:31N 38°58' E 117°46'0 0.0
2015-Jan-26 06:25N 38°58' E 117°46'0 0.0
2015-Jan-26 05:25N 38°58' E 117°46'0 0.0
2015-Jan-26 04:31N 38°58' E 117°46'0 0.0
2015-Jan-26 03:25N 38°58' E 117°46'0 0.0
2015-Jan-26 02:31N 38°58' E 117°46'0 0.0
2015-Jan-26 01:31N 38°58' E 117°46'0 0.0
2015-Jan-26 00:31N 38°58' E 117°46'0 0.0
2015-Jan-25 23:31N 38°58' E 117°46'0 0.0
2015-Jan-25 22:31N 38°58' E 117°46'0 0.0
2015-Jan-25 21:31N 38°58' E 117°46'0 0.0
2015-Jan-25 20:31N 38°58' E 117°46'0 0.0
2015-Jan-25 19:25N 38°58' E 117°46'0 0.0
2015-Jan-25 18:31N 38°58' E 117°46'0 0.0
2015-Jan-25 17:31N 38°58' E 117°46'0 0.0
2015-Jan-25 16:31N 38°58' E 117°46'0 0.0
2015-Jan-25 15:25N 38°58' E 117°46'0 0.0
2015-Jan-25 14:31N 38°58' E 117°46'0 0.0
2015-Jan-25 13:31N 38°58' E 117°46'0 0.0
2015-Jan-25 12:31N 38°58' E 117°46'0 0.0
2015-Jan-25 11:31N 38°58' E 117°46'0 0.0
2015-Jan-25 10:31N 38°58' E 117°46'0 0.0
2015-Jan-25 09:25N 38°58' E 117°46'0 0.0
2015-Jan-25 08:31N 38°58' E 117°46'0 0.0
2015-Jan-25 07:31N 38°58' E 117°46'0 0.0
2015-Jan-25 06:31N 38°58' E 117°46'0 0.0
2015-Jan-25 05:31N 38°58' E 117°46'0 0.0
2015-Jan-25 04:24N 38°58' E 117°46'0 0.0
2015-Jan-25 03:12N 38°58' E 117°46'0 0.0
2015-Jan-25 02:30N 38°58' E 117°46'0 0.0
2015-Jan-25 01:30N 38°58' E 117°46'0 0.0
2015-Jan-25 00:30N 38°58' E 117°46'0 0.0
2015-Jan-24 23:30N 38°58' E 117°46'0 0.0
2015-Jan-24 22:30N 38°58' E 117°46'0 0.0
2015-Jan-24 21:30N 38°58' E 117°46'0 0.0
2015-Jan-24 20:30N 38°58' E 117°46'0 0.0
2015-Jan-24 19:30N 38°58' E 117°46'0 0.3
2015-Jan-24 18:33N 38°58' E 117°47'1010.4
2015-Jan-24 17:34N 38°56' E 117°60'5 1.9
2015-Jan-24 15:08N 38°57' E 118°05'0 0.0
2015-Jan-24 09:14N 38°58' E 118°05'0 0.0
2015-Jan-24 04:32N 38°58' E 118°05'0 0.0
2015-Jan-24 03:20N 38°58' E 118°05'0 0.0
2015-Jan-24 02:32N 38°58' E 118°05'0 0.0
2015-Jan-24 01:08N 38°58' E 118°05'0 0.0
2015-Jan-24 00:32N 38°58' E 118°05'0 0.0
2015-Jan-23 23:08N 38°58' E 118°05'0 0.1
2015-Jan-23 22:32N 38°58' E 118°05'0 0.0
2015-Jan-23 16:20N 38°58' E 118°05'0 0.2
2015-Jan-23 15:32N 38°58' E 118°06'0 0.0
2015-Jan-23 14:13N 38°58' E 118°06'0 0.0
2015-Jan-23 13:31N 38°58' E 118°06'0 0.0
2015-Jan-23 12:31N 38°58' E 118°06'0 0.0
2015-Jan-23 11:25N 38°58' E 118°06'0 0.0
2015-Jan-23 10:25N 38°58' E 118°06'0 0.1
2015-Jan-23 09:31N 38°58' E 118°06'0 0.1
2015-Jan-23 07:25N 38°58' E 118°05'0 0.0
2015-Jan-23 06:19N 38°58' E 118°05'0 0.0
2015-Jan-23 03:25N 38°58' E 118°06'0 0.1
2015-Jan-23 02:25N 38°58' E 118°06'0 0.0
2015-Jan-23 01:31N 38°58' E 118°06'0 0.0
2015-Jan-23 00:13N 38°58' E 118°06'0 0.0
2015-Jan-22 23:31N 38°58' E 118°06'0 0.0
2015-Jan-22 15:25N 38°58' E 118°06'0 0.1
2015-Jan-22 14:25N 38°58' E 118°06'0 0.1
2015-Jan-22 13:31N 38°58' E 118°06'0 0.0
2015-Jan-22 11:13N 38°58' E 118°06'0 0.0
2015-Jan-22 10:31N 38°58' E 118°06'0 0.0
2015-Jan-22 09:25N 38°58' E 118°06'0 0.1
2015-Jan-22 08:19N 38°58' E 118°06'0 0.0
2015-Jan-22 03:18N 38°58' E 118°06'0 0.1
2015-Jan-22 02:18N 38°58' E 118°06'0 0.0
2015-Jan-22 01:30N 38°58' E 118°06'0 0.0
2015-Jan-21 22:18N 38°58' E 118°06'0 0.0
2015-Jan-21 21:30N 38°58' E 118°06'0 0.1
2015-Jan-21 19:12N 38°58' E 118°05'0 0.0
2015-Jan-21 18:24N 38°58' E 118°05'0 0.0
2015-Jan-21 14:30N 38°58' E 118°06'0 0.1
2015-Jan-21 13:12N 38°58' E 118°06'0 0.0
2015-Jan-21 12:30N 38°58' E 118°06'0 0.0
2015-Jan-21 11:24N 38°58' E 118°06'0 0.0
2015-Jan-21 10:30N 38°58' E 118°06'0 0.0
2015-Jan-21 09:30N 38°58' E 118°06'0 0.0
2015-Jan-21 08:18N 38°58' E 118°06'0 0.2
2015-Jan-21 07:24N 38°57' E 118°05'0 0.0
2015-Jan-21 01:18N 38°58' E 118°05'0 0.1
2015-Jan-21 00:30N 38°57' E 118°05'0 0.0
2015-Jan-20 23:06N 38°57' E 118°06'0 0.0
2015-Jan-20 22:06N 38°57' E 118°06'0 0.0
2015-Jan-20 21:30N 38°57' E 118°06'0 0.0
2015-Jan-20 20:30N 38°57' E 118°06'0 0.0
2015-Jan-20 19:24N 38°57' E 118°06'0 0.1
2015-Jan-20 18:33N 38°58' E 118°05'1 1.1
2015-Jan-20 17:33N 38°56' E 118°05'5 5.1
2015-Jan-20 16:33N 38°54' E 118°11'  
Track history (hours):
 
Tides and Currents Weather Stations Pressure Air Temp Water Temp Dewpoint Dewpoint Depression Visibility Wind Speed Wind Dir Waves Ship Positions

Kayu Ramin

Last reported at 2015-Jan-27 02:33 UTC. Time now 2015-Jan-31 07:05 UTC.
Position N 38°18' E 121°31'.

Length 225 m; draft 12 m.

Type: Cargo ship. MMSI: 354989000.

Date/timePositionNaut miles runAvg speedWind from/ knotsBaromVisibWave heightAir tempDewpointWater temp
2015-Jan-27 02:33N 38°18' E 121°31'17210.7
2015-Jan-26 10:33N 38°57' E 117°57'9 7.3
2015-Jan-26 09:19N 38°58' E 117°46'0 0.0
2015-Jan-26 08:31N 38°58' E 117°46'0 0.0
2015-Jan-26 07:31N 38°58' E 117°46'0 0.0
2015-Jan-26 06:25N 38°58' E 117°46'0 0.0
2015-Jan-26 05:25N 38°58' E 117°46'0 0.0
2015-Jan-26 04:31N 38°58' E 117°46'0 0.0
2015-Jan-26 03:25N 38°58' E 117°46'0 0.0
2015-Jan-26 02:31N 38°58' E 117°46'0 0.0
2015-Jan-26 01:31N 38°58' E 117°46'0 0.0
2015-Jan-26 00:31N 38°58' E 117°46'0 0.0
2015-Jan-25 23:31N 38°58' E 117°46'0 0.0
2015-Jan-25 22:31N 38°58' E 117°46'0 0.0
2015-Jan-25 21:31N 38°58' E 117°46'0 0.0
2015-Jan-25 20:31N 38°58' E 117°46'0 0.0
2015-Jan-25 19:25N 38°58' E 117°46'0 0.0
2015-Jan-25 18:31N 38°58' E 117°46'0 0.0
2015-Jan-25 17:31N 38°58' E 117°46'0 0.0
2015-Jan-25 16:31N 38°58' E 117°46'0 0.0
2015-Jan-25 15:25N 38°58' E 117°46'0 0.0
2015-Jan-25 14:31N 38°58' E 117°46'0 0.0
2015-Jan-25 13:31N 38°58' E 117°46'0 0.0
2015-Jan-25 12:31N 38°58' E 117°46'0 0.0
2015-Jan-25 11:31N 38°58' E 117°46'0 0.0
2015-Jan-25 10:31N 38°58' E 117°46'0 0.0
2015-Jan-25 09:25N 38°58' E 117°46'0 0.0
2015-Jan-25 08:31N 38°58' E 117°46'0 0.0
2015-Jan-25 07:31N 38°58' E 117°46'0 0.0
2015-Jan-25 06:31N 38°58' E 117°46'0 0.0
2015-Jan-25 05:31N 38°58' E 117°46'0 0.0
2015-Jan-25 04:24N 38°58' E 117°46'0 0.0
2015-Jan-25 03:12N 38°58' E 117°46'0 0.0
2015-Jan-25 02:30N 38°58' E 117°46'0 0.0
2015-Jan-25 01:30N 38°58' E 117°46'0 0.0
2015-Jan-25 00:30N 38°58' E 117°46'0 0.0
2015-Jan-24 23:30N 38°58' E 117°46'0 0.0
2015-Jan-24 22:30N 38°58' E 117°46'0 0.0
2015-Jan-24 21:30N 38°58' E 117°46'0 0.0
2015-Jan-24 20:30N 38°58' E 117°46'0 0.0
2015-Jan-24 19:30N 38°58' E 117°46'0 0.3
2015-Jan-24 18:33N 38°58' E 117°47'1010.4
2015-Jan-24 17:34N 38°56' E 117°60'5 1.9
2015-Jan-24 15:08N 38°57' E 118°05'0 0.0
2015-Jan-24 09:14N 38°58' E 118°05'0 0.0
2015-Jan-24 04:32N 38°58' E 118°05'0 0.0
2015-Jan-24 03:20N 38°58' E 118°05'0 0.0
2015-Jan-24 02:32N 38°58' E 118°05'0 0.0
2015-Jan-24 01:08N 38°58' E 118°05'0 0.0
2015-Jan-24 00:32N 38°58' E 118°05'0 0.0
2015-Jan-23 23:08N 38°58' E 118°05'0 0.1
2015-Jan-23 22:32N 38°58' E 118°05'0 0.0
2015-Jan-23 16:20N 38°58' E 118°05'0 0.2
2015-Jan-23 15:32N 38°58' E 118°06'0 0.0
2015-Jan-23 14:13N 38°58' E 118°06'0 0.0
2015-Jan-23 13:31N 38°58' E 118°06'0 0.0
2015-Jan-23 12:31N 38°58' E 118°06'0 0.0
2015-Jan-23 11:25N 38°58' E 118°06'0 0.0
2015-Jan-23 10:25N 38°58' E 118°06'0 0.1
2015-Jan-23 09:31N 38°58' E 118°06'0 0.1
2015-Jan-23 07:25N 38°58' E 118°05'0 0.0
2015-Jan-23 06:19N 38°58' E 118°05'0 0.0
2015-Jan-23 03:25N 38°58' E 118°06'0 0.1
2015-Jan-23 02:25N 38°58' E 118°06'0 0.0
2015-Jan-23 01:31N 38°58' E 118°06'0 0.0
2015-Jan-23 00:13N 38°58' E 118°06'0 0.0
2015-Jan-22 23:31N 38°58' E 118°06'0 0.0
2015-Jan-22 15:25N 38°58' E 118°06'0 0.1
2015-Jan-22 14:25N 38°58' E 118°06'0 0.1
2015-Jan-22 13:31N 38°58' E 118°06'0 0.0
2015-Jan-22 11:13N 38°58' E 118°06'0 0.0
2015-Jan-22 10:31N 38°58' E 118°06'0 0.0
2015-Jan-22 09:25N 38°58' E 118°06'0 0.1
2015-Jan-22 08:19N 38°58' E 118°06'0 0.0
2015-Jan-22 03:18N 38°58' E 118°06'0 0.1
2015-Jan-22 02:18N 38°58' E 118°06'0 0.0
2015-Jan-22 01:30N 38°58' E 118°06'0 0.0
2015-Jan-21 22:18N 38°58' E 118°06'0 0.0
2015-Jan-21 21:30N 38°58' E 118°06'0 0.1
2015-Jan-21 19:12N 38°58' E 118°05'0 0.0
2015-Jan-21 18:24N 38°58' E 118°05'0 0.0
2015-Jan-21 14:30N 38°58' E 118°06'0 0.1
2015-Jan-21 13:12N 38°58' E 118°06'0 0.0
2015-Jan-21 12:30N 38°58' E 118°06'0 0.0
2015-Jan-21 11:24N 38°58' E 118°06'0 0.0
2015-Jan-21 10:30N 38°58' E 118°06'0 0.0
2015-Jan-21 09:30N 38°58' E 118°06'0 0.0
2015-Jan-21 08:18N 38°58' E 118°06'0 0.2
2015-Jan-21 07:24N 38°57' E 118°05'0 0.0
2015-Jan-21 01:18N 38°58' E 118°05'0 0.1
2015-Jan-21 00:30N 38°57' E 118°05'0 0.0
2015-Jan-20 23:06N 38°57' E 118°06'0 0.0
2015-Jan-20 22:06N 38°57' E 118°06'0 0.0
2015-Jan-20 21:30N 38°57' E 118°06'0 0.0
2015-Jan-20 20:30N 38°57' E 118°06'0 0.0
2015-Jan-20 19:24N 38°57' E 118°06'0 0.1
2015-Jan-20 18:33N 38°58' E 118°05'1 1.1
2015-Jan-20 17:33N 38°56' E 118°05'5 5.1
2015-Jan-20 16:33N 38°54' E 118°11'  

Dump ship's entire track history